sensor_id;sensor_type;location;lat;lon;timestamp;pressure;altitude;pressure_sealevel;temperature;humidity
62946;BME280;52164;52.212;-1.010;2022-09-28T00:00:56;99062.34;;;7.42;78.05
62946;BME280;52164;52.212;-1.010;2022-09-28T00:03:22;99063.24;;;7.40;78.09
62946;BME280;52164;52.212;-1.010;2022-09-28T00:05:47;99066.42;;;7.42;78.15
62946;BME280;52164;52.212;-1.010;2022-09-28T00:08:13;99064.65;;;7.43;78.14
62946;BME280;52164;52.212;-1.010;2022-09-28T00:10:38;99065.00;;;7.41;77.98
62946;BME280;52164;52.212;-1.010;2022-09-28T00:13:07;99065.92;;;7.40;78.47
62946;BME280;52164;52.212;-1.010;2022-09-28T00:15:33;99064.35;;;7.37;78.18
62946;BME280;52164;52.212;-1.010;2022-09-28T00:17:59;99063.67;;;7.33;78.31
62946;BME280;52164;52.212;-1.010;2022-09-28T00:20:25;99066.17;;;7.31;78.09
62946;BME280;52164;52.212;-1.010;2022-09-28T00:22:51;99065.34;;;7.27;78.12
62946;BME280;52164;52.212;-1.010;2022-09-28T00:25:16;99066.08;;;7.24;78.25
62946;BME280;52164;52.212;-1.010;2022-09-28T00:27:42;99066.11;;;7.19;78.33
62946;BME280;52164;52.212;-1.010;2022-09-28T00:30:08;99071.65;;;7.16;78.25
62946;BME280;52164;52.212;-1.010;2022-09-28T00:32:34;99069.91;;;7.13;78.43
62946;BME280;52164;52.212;-1.010;2022-09-28T00:34:59;99072.42;;;7.09;78.44
62946;BME280;52164;52.212;-1.010;2022-09-28T00:37:24;99072.80;;;7.07;78.70
62946;BME280;52164;52.212;-1.010;2022-09-28T00:39:50;99070.33;;;7.06;78.76
62946;BME280;52164;52.212;-1.010;2022-09-28T00:42:18;99069.79;;;7.05;78.96
62946;BME280;52164;52.212;-1.010;2022-09-28T00:44:59;99068.73;;;7.04;78.90
62946;BME280;52164;52.212;-1.010;2022-09-28T00:49:59;99074.95;;;7.03;79.01
62946;BME280;52164;52.212;-1.010;2022-09-28T00:52:35;99074.60;;;7.02;79.27
62946;BME280;52164;52.212;-1.010;2022-09-28T00:55:05;99075.31;;;7.03;79.12
62946;BME280;52164;52.212;-1.010;2022-09-28T00:57:33;99076.55;;;7.03;79.38
62946;BME280;52164;52.212;-1.010;2022-09-28T00:59:59;99077.61;;;7.02;78.89
62946;BME280;52164;52.212;-1.010;2022-09-28T01:02:26;99076.74;;;7.02;78.99
62946;BME280;52164;52.212;-1.010;2022-09-28T01:04:52;99077.64;;;7.01;79.35
62946;BME280;52164;52.212;-1.010;2022-09-28T01:07:19;99079.05;;;7.02;79.38
62946;BME280;52164;52.212;-1.010;2022-09-28T01:09:45;99079.73;;;7.04;79.35
62946;BME280;52164;52.212;-1.010;2022-09-28T01:12:12;99076.71;;;7.04;79.33
62946;BME280;52164;52.212;-1.010;2022-09-28T01:14:38;99074.96;;;7.03;78.94
62946;BME280;52164;52.212;-1.010;2022-09-28T01:17:14;99074.98;;;7.01;79.20
62946;BME280;52164;52.212;-1.010;2022-09-28T01:20:06;99071.30;;;6.96;79.17
62946;BME280;52164;52.212;-1.010;2022-09-28T01:25:23;99070.81;;;6.89;79.13
62946;BME280;52164;52.212;-1.010;2022-09-28T01:27:59;99071.91;;;6.86;79.55
62946;BME280;52164;52.212;-1.010;2022-09-28T01:30:32;99073.68;;;6.85;79.57
62946;BME280;52164;52.212;-1.010;2022-09-28T01:33:06;99074.41;;;6.84;79.37
62946;BME280;52164;52.212;-1.010;2022-09-28T01:35:40;99070.71;;;6.82;79.44
62946;BME280;52164;52.212;-1.010;2022-09-28T01:38:13;99070.19;;;6.80;79.72
62946;BME280;52164;52.212;-1.010;2022-09-28T01:40:42;99069.48;;;6.80;79.77
62946;BME280;52164;52.212;-1.010;2022-09-28T01:43:27;99070.36;;;6.79;79.85
62946;BME280;52164;52.212;-1.010;2022-09-28T01:46:06;99064.88;;;6.77;79.61
62946;BME280;52164;52.212;-1.010;2022-09-28T01:49:00;99064.71;;;6.76;79.93
62946;BME280;52164;52.212;-1.010;2022-09-28T01:51:31;99063.13;;;6.76;79.98
62946;BME280;52164;52.212;-1.010;2022-09-28T01:54:05;99060.98;;;6.77;79.97
62946;BME280;52164;52.212;-1.010;2022-09-28T01:56:38;99060.98;;;6.77;79.82
62946;BME280;52164;52.212;-1.010;2022-09-28T01:59:06;99062.95;;;6.75;79.80
62946;BME280;52164;52.212;-1.010;2022-09-28T02:01:40;99062.80;;;6.72;79.95
62946;BME280;52164;52.212;-1.010;2022-09-28T02:04:14;99063.48;;;6.73;80.03
62946;BME280;52164;52.212;-1.010;2022-09-28T02:06:46;99064.77;;;6.72;79.84
62946;BME280;52164;52.212;-1.010;2022-09-28T02:09:20;99066.38;;;6.69;80.02
62946;BME280;52164;52.212;-1.010;2022-09-28T02:11:51;99068.68;;;6.68;79.76
62946;BME280;52164;52.212;-1.010;2022-09-28T02:14:19;99068.34;;;6.66;79.99
62946;BME280;52164;52.212;-1.010;2022-09-28T02:16:48;99065.32;;;6.66;80.30
62946;BME280;52164;52.212;-1.010;2022-09-28T02:19:16;99062.48;;;6.68;80.43
62946;BME280;52164;52.212;-1.010;2022-09-28T02:22:08;99060.50;;;6.71;80.21
62946;BME280;52164;52.212;-1.010;2022-09-28T02:27:30;99059.09;;;6.71;80.06
62946;BME280;52164;52.212;-1.010;2022-09-28T02:29:58;99049.72;;;6.66;80.23
62946;BME280;52164;52.212;-1.010;2022-09-28T02:32:24;99051.70;;;6.63;80.08
62946;BME280;52164;52.212;-1.010;2022-09-28T02:34:52;99051.71;;;6.61;80.39
62946;BME280;52164;52.212;-1.010;2022-09-28T02:37:18;99049.96;;;6.58;80.35
62946;BME280;52164;52.212;-1.010;2022-09-28T02:39:43;99049.09;;;6.56;80.12
62946;BME280;52164;52.212;-1.010;2022-09-28T02:42:30;99048.77;;;6.52;80.38
62946;BME280;52164;52.212;-1.010;2022-09-28T02:45:28;99052.66;;;6.51;80.58
62946;BME280;52164;52.212;-1.010;2022-09-28T02:54:05;99053.36;;;6.50;80.77
62946;BME280;52164;52.212;-1.010;2022-09-28T02:56:45;99058.68;;;6.54;80.93
62946;BME280;52164;52.212;-1.010;2022-09-28T03:02:03;99060.59;;;6.59;80.78
62946;BME280;52164;52.212;-1.010;2022-09-28T03:04:52;99062.70;;;6.62;80.81
62946;BME280;52164;52.212;-1.010;2022-09-28T03:07:40;99062.84;;;6.64;80.85
62946;BME280;52164;52.212;-1.010;2022-09-28T03:10:23;99064.26;;;6.67;80.94
62946;BME280;52164;52.212;-1.010;2022-09-28T03:12:50;99065.31;;;6.68;80.65
62946;BME280;52164;52.212;-1.010;2022-09-28T03:17:46;99069.75;;;6.68;80.43
62946;BME280;52164;52.212;-1.010;2022-09-28T03:20:11;99072.08;;;6.65;80.61
62946;BME280;52164;52.212;-1.010;2022-09-28T03:22:37;99072.80;;;6.63;80.52
62946;BME280;52164;52.212;-1.010;2022-09-28T03:25:05;99074.57;;;6.62;80.65
62946;BME280;52164;52.212;-1.010;2022-09-28T03:27:30;99077.23;;;6.60;80.90
62946;BME280;52164;52.212;-1.010;2022-09-28T03:29:56;99076.36;;;6.59;80.93
62946;BME280;52164;52.212;-1.010;2022-09-28T03:32:21;99078.84;;;6.59;80.90
62946;BME280;52164;52.212;-1.010;2022-09-28T03:34:47;99076.90;;;6.59;81.05
62946;BME280;52164;52.212;-1.010;2022-09-28T03:37:12;99075.84;;;6.59;81.04
62946;BME280;52164;52.212;-1.010;2022-09-28T03:39:37;99072.29;;;6.59;81.05
62946;BME280;52164;52.212;-1.010;2022-09-28T03:42:03;99070.34;;;6.60;81.17
62946;BME280;52164;52.212;-1.010;2022-09-28T03:44:29;99071.38;;;6.61;81.23
62946;BME280;52164;52.212;-1.010;2022-09-28T03:46:54;99075.27;;;6.62;81.35
62946;BME280;52164;52.212;-1.010;2022-09-28T03:49:20;99075.25;;;6.65;81.27
62946;BME280;52164;52.212;-1.010;2022-09-28T03:51:46;99075.61;;;6.66;80.99
62946;BME280;52164;52.212;-1.010;2022-09-28T03:54:11;99077.20;;;6.67;81.07
62946;BME280;52164;52.212;-1.010;2022-09-28T03:56:40;99075.08;;;6.66;80.93
62946;BME280;52164;52.212;-1.010;2022-09-28T03:59:06;99077.04;;;6.67;80.92
62946;BME280;52164;52.212;-1.010;2022-09-28T04:01:31;99080.39;;;6.66;80.78
62946;BME280;52164;52.212;-1.010;2022-09-28T04:03:57;99080.40;;;6.66;80.79
62946;BME280;52164;52.212;-1.010;2022-09-28T04:06:26;99079.16;;;6.66;80.68
62946;BME280;52164;52.212;-1.010;2022-09-28T04:08:51;99077.57;;;6.64;80.76
62946;BME280;52164;52.212;-1.010;2022-09-28T04:11:17;99077.56;;;6.64;80.75
62946;BME280;52164;52.212;-1.010;2022-09-28T04:13:42;99081.30;;;6.61;80.90
62946;BME280;52164;52.212;-1.010;2022-09-28T04:16:09;99081.70;;;6.59;80.91
62946;BME280;52164;52.212;-1.010;2022-09-28T04:18:35;99084.18;;;6.57;81.06
62946;BME280;52164;52.212;-1.010;2022-09-28T04:21:06;99082.96;;;6.54;81.18
62946;BME280;52164;52.212;-1.010;2022-09-28T04:23:34;99085.63;;;6.51;81.31
62946;BME280;52164;52.212;-1.010;2022-09-28T04:26:02;99089.36;;;6.50;81.28
62946;BME280;52164;52.212;-1.010;2022-09-28T04:28:28;99090.59;;;6.53;81.39
62946;BME280;52164;52.212;-1.010;2022-09-28T04:31:16;99086.86;;;6.55;81.35
62946;BME280;52164;52.212;-1.010;2022-09-28T04:33:42;99086.69;;;6.55;81.53
62946;BME280;52164;52.212;-1.010;2022-09-28T04:36:08;99092.51;;;6.58;81.83
62946;BME280;52164;52.212;-1.010;2022-09-28T04:38:35;99094.06;;;6.63;81.71
62946;BME280;52164;52.212;-1.010;2022-09-28T04:41:01;99098.30;;;6.66;81.65
62946;BME280;52164;52.212;-1.010;2022-09-28T04:43:27;99095.98;;;6.69;82.06
62946;BME280;52164;52.212;-1.010;2022-09-28T04:45:58;99099.34;;;6.69;82.12
62946;BME280;52164;52.212;-1.010;2022-09-28T04:48:25;99095.96;;;6.70;81.87
62946;BME280;52164;52.212;-1.010;2022-09-28T04:50:54;99095.44;;;6.71;82.13
62946;BME280;52164;52.212;-1.010;2022-09-28T04:53:21;99092.91;;;6.74;82.14
62946;BME280;52164;52.212;-1.010;2022-09-28T04:55:58;99092.20;;;6.76;82.21
62946;BME280;52164;52.212;-1.010;2022-09-28T04:58:24;99090.77;;;6.79;82.39
62946;BME280;52164;52.212;-1.010;2022-09-28T05:00:50;99091.65;;;6.80;82.39
62946;BME280;52164;52.212;-1.010;2022-09-28T05:03:17;99087.90;;;6.81;82.03
62946;BME280;52164;52.212;-1.010;2022-09-28T05:05:43;99085.06;;;6.82;82.11
62946;BME280;52164;52.212;-1.010;2022-09-28T05:08:11;99079.05;;;6.80;82.19
62946;BME280;52164;52.212;-1.010;2022-09-28T05:10:36;99081.55;;;6.77;82.06
62946;BME280;52164;52.212;-1.010;2022-09-28T05:13:05;99078.59;;;6.70;82.42
62946;BME280;52164;52.212;-1.010;2022-09-28T05:15:33;99085.84;;;6.73;82.32
62946;BME280;52164;52.212;-1.010;2022-09-28T05:17:58;99078.03;;;6.76;82.40
62946;BME280;52164;52.212;-1.010;2022-09-28T05:20:24;99079.77;;;6.79;82.35
62946;BME280;52164;52.212;-1.010;2022-09-28T05:22:49;99079.20;;;6.82;82.46
62946;BME280;52164;52.212;-1.010;2022-09-28T05:25:14;99078.30;;;6.84;82.21
62946;BME280;52164;52.212;-1.010;2022-09-28T05:27:40;99076.36;;;6.83;82.31
62946;BME280;52164;52.212;-1.010;2022-09-28T05:30:06;99083.44;;;6.85;82.46
62946;BME280;52164;52.212;-1.010;2022-09-28T05:32:31;99088.76;;;6.86;82.16
62946;BME280;52164;52.212;-1.010;2022-09-28T05:34:57;99090.71;;;6.85;82.08
62946;BME280;52164;52.212;-1.010;2022-09-28T05:37:25;99083.84;;;6.81;82.13
62946;BME280;52164;52.212;-1.010;2022-09-28T05:39:50;99082.04;;;6.83;82.39
62946;BME280;52164;52.212;-1.010;2022-09-28T05:42:16;99080.23;;;6.86;82.45
62946;BME280;52164;52.212;-1.010;2022-09-28T05:44:41;99078.25;;;6.91;82.51
62946;BME280;52164;52.212;-1.010;2022-09-28T05:47:07;99079.27;;;6.95;82.44
62946;BME280;52164;52.212;-1.010;2022-09-28T05:49:32;99079.27;;;6.98;82.59
62946;BME280;52164;52.212;-1.010;2022-09-28T05:51:58;99072.31;;;7.01;82.41
62946;BME280;52164;52.212;-1.010;2022-09-28T05:54:23;99074.74;;;7.06;82.73
62946;BME280;52164;52.212;-1.010;2022-09-28T05:56:49;99082.37;;;7.09;82.45
62946;BME280;52164;52.212;-1.010;2022-09-28T05:59:14;99082.52;;;7.10;82.60
62946;BME280;52164;52.212;-1.010;2022-09-28T06:01:41;99073.49;;;7.09;82.27
62946;BME280;52164;52.212;-1.010;2022-09-28T06:04:06;99083.96;;;7.08;82.45
62946;BME280;52164;52.212;-1.010;2022-09-28T06:06:33;99081.66;;;7.07;82.53
62946;BME280;52164;52.212;-1.010;2022-09-28T06:09:01;99082.55;;;7.09;82.50
62946;BME280;52164;52.212;-1.010;2022-09-28T06:11:27;99085.89;;;7.11;82.35
62946;BME280;52164;52.212;-1.010;2022-09-28T06:13:53;99085.17;;;7.12;82.42
62946;BME280;52164;52.212;-1.010;2022-09-28T06:16:20;99085.17;;;7.12;82.13
62946;BME280;52164;52.212;-1.010;2022-09-28T06:18:45;99091.73;;;7.12;82.26
62946;BME280;52164;52.212;-1.010;2022-09-28T06:21:12;99091.59;;;7.09;82.31
62946;BME280;52164;52.212;-1.010;2022-09-28T06:23:37;99092.14;;;7.05;82.19
62946;BME280;52164;52.212;-1.010;2022-09-28T06:26:03;99095.55;;;7.01;82.05
62946;BME280;52164;52.212;-1.010;2022-09-28T06:28:28;99098.41;;;6.99;82.59
62946;BME280;52164;52.212;-1.010;2022-09-28T06:30:54;99103.03;;;6.97;82.22
62946;BME280;52164;52.212;-1.010;2022-09-28T06:33:20;99109.08;;;6.96;82.09
62946;BME280;52164;52.212;-1.010;2022-09-28T06:35:46;99111.92;;;6.96;82.32
62946;BME280;52164;52.212;-1.010;2022-09-28T06:38:12;99117.05;;;6.96;82.39
62946;BME280;52164;52.212;-1.010;2022-09-28T06:40:37;99117.76;;;6.97;82.37
62946;BME280;52164;52.212;-1.010;2022-09-28T06:43:08;99119.70;;;6.99;82.24
62946;BME280;52164;52.212;-1.010;2022-09-28T06:45:35;99122.52;;;7.01;82.59
62946;BME280;52164;52.212;-1.010;2022-09-28T06:48:01;99124.98;;;7.04;82.38
62946;BME280;52164;52.212;-1.010;2022-09-28T06:50:30;99127.42;;;7.09;82.65
62946;BME280;52164;52.212;-1.010;2022-09-28T06:52:58;99125.95;;;7.14;82.56
62946;BME280;52164;52.212;-1.010;2022-09-28T06:55:23;99130.88;;;7.18;82.77
62946;BME280;52164;52.212;-1.010;2022-09-28T06:58:00;99132.27;;;7.22;82.89
62946;BME280;52164;52.212;-1.010;2022-09-28T07:00:27;99135.61;;;7.27;82.80
62946;BME280;52164;52.212;-1.010;2022-09-28T07:02:52;99137.52;;;7.33;82.85
62946;BME280;52164;52.212;-1.010;2022-09-28T07:05:18;99139.77;;;7.39;82.93
62946;BME280;52164;52.212;-1.010;2022-09-28T07:07:51;99142.55;;;7.45;82.99
62946;BME280;52164;52.212;-1.010;2022-09-28T07:10:23;99140.00;;;7.52;82.74
62946;BME280;52164;52.212;-1.010;2022-09-28T07:12:50;99139.20;;;7.60;82.99
62946;BME280;52164;52.212;-1.010;2022-09-28T07:15:17;99140.91;;;7.67;82.85
62946;BME280;52164;52.212;-1.010;2022-09-28T07:17:42;99144.61;;;7.70;82.79
62946;BME280;52164;52.212;-1.010;2022-09-28T07:20:08;99146.36;;;7.72;82.86
62946;BME280;52164;52.212;-1.010;2022-09-28T07:22:34;99148.08;;;7.78;82.99
62946;BME280;52164;52.212;-1.010;2022-09-28T07:24:59;99153.52;;;7.85;82.55
62946;BME280;52164;52.212;-1.010;2022-09-28T07:27:25;99153.84;;;7.87;82.64
62946;BME280;52164;52.212;-1.010;2022-09-28T07:29:51;99156.27;;;7.93;82.57
62946;BME280;52164;52.212;-1.010;2022-09-28T07:32:18;99158.70;;;7.98;82.61
62946;BME280;52164;52.212;-1.010;2022-09-28T07:34:44;99158.69;;;7.99;82.49
62946;BME280;52164;52.212;-1.010;2022-09-28T07:37:10;99150.61;;;8.06;82.89
62946;BME280;52164;52.212;-1.010;2022-09-28T07:39:37;99149.44;;;8.16;82.41
62946;BME280;52164;52.212;-1.010;2022-09-28T07:42:24;99151.70;;;8.20;82.48
62946;BME280;52164;52.212;-1.010;2022-09-28T07:44:53;99149.73;;;8.21;82.24
62946;BME280;52164;52.212;-1.010;2022-09-28T07:47:18;99149.71;;;8.22;82.22
62946;BME280;52164;52.212;-1.010;2022-09-28T07:49:51;99156.05;;;8.27;82.28
62946;BME280;52164;52.212;-1.010;2022-09-28T07:52:16;99159.43;;;8.26;82.02
62946;BME280;52164;52.212;-1.010;2022-09-28T07:54:42;99159.14;;;8.22;81.80
62946;BME280;52164;52.212;-1.010;2022-09-28T07:57:07;99159.70;;;8.19;81.54
62946;BME280;52164;52.212;-1.010;2022-09-28T07:59:33;99163.98;;;8.18;81.58
62946;BME280;52164;52.212;-1.010;2022-09-28T08:02:08;99161.14;;;8.18;82.02
62946;BME280;52164;52.212;-1.010;2022-09-28T08:04:34;99167.59;;;8.29;82.10
62946;BME280;52164;52.212;-1.010;2022-09-28T08:06:59;99167.80;;;8.39;81.77
62946;BME280;52164;52.212;-1.010;2022-09-28T08:09:31;99169.70;;;8.46;81.48
62946;BME280;52164;52.212;-1.010;2022-09-28T08:11:56;99169.45;;;8.53;81.28
62946;BME280;52164;52.212;-1.010;2022-09-28T08:14:23;99171.17;;;8.56;81.62
62946;BME280;52164;52.212;-1.010;2022-09-28T08:16:49;99163.48;;;8.60;81.18
62946;BME280;52164;52.212;-1.010;2022-09-28T08:19:14;99160.70;;;8.68;81.03
62946;BME280;52164;52.212;-1.010;2022-09-28T08:21:39;99162.43;;;8.72;80.93
62946;BME280;52164;52.212;-1.010;2022-09-28T08:24:14;99165.45;;;8.73;80.68
62946;BME280;52164;52.212;-1.010;2022-09-28T08:26:40;99162.25;;;8.73;80.61
62946;BME280;52164;52.212;-1.010;2022-09-28T08:29:07;99161.16;;;8.73;80.58
62946;BME280;52164;52.212;-1.010;2022-09-28T08:31:33;99164.31;;;8.77;80.49
62946;BME280;52164;52.212;-1.010;2022-09-28T08:33:59;99168.52;;;8.81;80.17
62946;BME280;52164;52.212;-1.010;2022-09-28T08:36:24;99171.11;;;8.86;80.46
62946;BME280;52164;52.212;-1.010;2022-09-28T08:38:50;99171.63;;;8.88;80.13
62946;BME280;52164;52.212;-1.010;2022-09-28T08:41:21;99171.25;;;8.90;80.07
62946;BME280;52164;52.212;-1.010;2022-09-28T08:44:13;99172.98;;;8.93;80.01
62946;BME280;52164;52.212;-1.010;2022-09-28T08:46:44;99172.57;;;8.96;79.67
62946;BME280;52164;52.212;-1.010;2022-09-28T08:49:24;99173.80;;;8.97;79.09
62946;BME280;52164;52.212;-1.010;2022-09-28T08:52:16;99175.92;;;8.97;79.01
62946;BME280;52164;52.212;-1.010;2022-09-28T08:54:50;99178.78;;;8.97;78.92
62946;BME280;52164;52.212;-1.010;2022-09-28T08:58:31;99172.89;;;8.98;79.49
62946;BME280;52164;52.212;-1.010;2022-09-28T09:00:18;99171.39;;;9.04;79.44
62946;BME280;52164;52.212;-1.010;2022-09-28T09:02:44;99175.55;;;9.11;79.12
62946;BME280;52164;52.212;-1.010;2022-09-28T09:05:13;99176.90;;;9.16;78.90
62946;BME280;52164;52.212;-1.010;2022-09-28T09:21:14;99180.59;;;9.62;78.12
62946;BME280;52164;52.212;-1.010;2022-09-28T09:24:02;99180.30;;;9.68;77.59
62946;BME280;52164;52.212;-1.010;2022-09-28T09:26:36;99177.37;;;9.73;77.43
62946;BME280;52164;52.212;-1.010;2022-09-28T09:29:22;99177.30;;;9.77;77.12
62946;BME280;52164;52.212;-1.010;2022-09-28T09:34:18;99175.56;;;9.84;77.22
62946;BME280;52164;52.212;-1.010;2022-09-28T09:35:02;99172.55;;;9.92;76.93
62946;BME280;52164;52.212;-1.010;2022-09-28T09:38:17;99173.27;;;10.02;76.96
62946;BME280;52164;52.212;-1.010;2022-09-28T09:43:36;99169.66;;;10.22;76.81
62946;BME280;52164;52.212;-1.010;2022-09-28T09:51:53;99159.46;;;10.52;76.53
62946;BME280;52164;52.212;-1.010;2022-09-28T09:54:05;99168.16;;;10.71;76.08
62946;BME280;52164;52.212;-1.010;2022-09-28T09:56:39;99164.99;;;10.85;75.44
62946;BME280;52164;52.212;-1.010;2022-09-28T09:59:13;99163.17;;;11.01;75.22
62946;BME280;52164;52.212;-1.010;2022-09-28T10:01:43;99165.95;;;11.20;75.22
62946;BME280;52164;52.212;-1.010;2022-09-28T10:04:28;99170.77;;;11.35;74.68
62946;BME280;52164;52.212;-1.010;2022-09-28T10:07:02;99161.64;;;11.43;74.37
62946;BME280;52164;52.212;-1.010;2022-09-28T10:09:38;99165.01;;;11.65;73.95
62946;BME280;52164;52.212;-1.010;2022-09-28T10:12:12;99163.83;;;11.76;73.55
62946;BME280;52164;52.212;-1.010;2022-09-28T10:14:40;99164.06;;;11.80;73.56
62946;BME280;52164;52.212;-1.010;2022-09-28T10:17:05;99163.48;;;11.89;72.71
62946;BME280;52164;52.212;-1.010;2022-09-28T10:19:35;99163.13;;;11.82;72.40
62946;BME280;52164;52.212;-1.010;2022-09-28T10:22:04;99159.51;;;11.91;71.67
62946;BME280;52164;52.212;-1.010;2022-09-28T10:24:33;99150.46;;;12.09;71.54
62946;BME280;52164;52.212;-1.010;2022-09-28T10:27:06;99153.02;;;12.20;71.59
62946;BME280;52164;52.212;-1.010;2022-09-28T10:29:42;99150.63;;;12.35;71.03
62946;BME280;52164;52.212;-1.010;2022-09-28T10:32:35;99146.58;;;12.45;70.70
62946;BME280;52164;52.212;-1.010;2022-09-28T10:35:25;99149.87;;;12.48;70.17
62946;BME280;52164;52.212;-1.010;2022-09-28T10:38:13;99153.02;;;12.51;70.16
62946;BME280;52164;52.212;-1.010;2022-09-28T10:40:45;99153.42;;;12.36;69.25
62946;BME280;52164;52.212;-1.010;2022-09-28T10:45:40;99148.04;;;12.25;69.14
62946;BME280;52164;52.212;-1.010;2022-09-28T10:48:14;99144.87;;;12.42;68.98
62946;BME280;52164;52.212;-1.010;2022-09-28T10:50:41;99150.11;;;12.58;68.97
62946;BME280;52164;52.212;-1.010;2022-09-28T10:53:22;99148.96;;;12.67;68.16
62946;BME280;52164;52.212;-1.010;2022-09-28T10:55:58;99151.09;;;12.79;68.13
62946;BME280;52164;52.212;-1.010;2022-09-28T10:58:35;99150.30;;;12.75;67.95
62946;BME280;52164;52.212;-1.010;2022-09-28T11:01:05;99149.85;;;12.72;67.78
62946;BME280;52164;52.212;-1.010;2022-09-28T11:03:39;99144.19;;;12.77;67.18
62946;BME280;52164;52.212;-1.010;2022-09-28T11:06:06;99144.56;;;12.82;67.02
62946;BME280;52164;52.212;-1.010;2022-09-28T11:09:01;99144.52;;;12.95;67.02
62946;BME280;52164;52.212;-1.010;2022-09-28T11:11:27;99143.69;;;13.15;66.79
62946;BME280;52164;52.212;-1.010;2022-09-28T11:13:57;99144.96;;;13.20;66.59
62946;BME280;52164;52.212;-1.010;2022-09-28T11:16:31;99145.06;;;13.17;65.90
62946;BME280;52164;52.212;-1.010;2022-09-28T11:19:05;99144.15;;;13.17;65.90
62946;BME280;52164;52.212;-1.010;2022-09-28T11:21:48;99147.13;;;13.25;65.65
62946;BME280;52164;52.212;-1.010;2022-09-28T11:24:20;99147.27;;;13.32;65.48
62946;BME280;52164;52.212;-1.010;2022-09-28T11:26:49;99143.09;;;13.34;65.26
62946;BME280;52164;52.212;-1.010;2022-09-28T11:31:44;99146.98;;;13.42;64.85
62946;BME280;52164;52.212;-1.010;2022-09-28T11:34:19;99147.15;;;13.52;64.78
62946;BME280;52164;52.212;-1.010;2022-09-28T11:40:02;99148.79;;;13.73;63.96
62946;BME280;52164;52.212;-1.010;2022-09-28T11:43:02;99144.15;;;13.67;63.11
62946;BME280;52164;52.212;-1.010;2022-09-28T11:45:45;99146.89;;;13.65;62.65
62946;BME280;52164;52.212;-1.010;2022-09-28T11:48:20;99146.65;;;13.67;62.46
62946;BME280;52164;52.212;-1.010;2022-09-28T11:50:54;99140.54;;;13.68;62.21
62946;BME280;52164;52.212;-1.010;2022-09-28T11:53:30;99138.95;;;13.72;62.43
62946;BME280;52164;52.212;-1.010;2022-09-28T11:56:50;99141.52;;;13.76;62.23
62946;BME280;52164;52.212;-1.010;2022-09-28T11:59:24;99136.25;;;13.78;62.20
62946;BME280;52164;52.212;-1.010;2022-09-28T12:04:38;99132.94;;;13.75;62.29
62946;BME280;52164;52.212;-1.010;2022-09-28T12:07:33;99129.50;;;13.81;62.13
62946;BME280;52164;52.212;-1.010;2022-09-28T12:10:15;99135.20;;;13.92;61.77
62946;BME280;52164;52.212;-1.010;2022-09-28T12:12:53;99137.84;;;13.98;60.86
62946;BME280;52164;52.212;-1.010;2022-09-28T12:15:25;99133.48;;;14.00;60.76
62946;BME280;52164;52.212;-1.010;2022-09-28T12:18:01;99135.98;;;14.01;60.65
62946;BME280;52164;52.212;-1.010;2022-09-28T12:20:37;99137.48;;;13.98;60.63
62946;BME280;52164;52.212;-1.010;2022-09-28T12:23:17;99135.58;;;13.97;60.32
62946;BME280;52164;52.212;-1.010;2022-09-28T12:25:52;99134.56;;;13.95;60.41
62946;BME280;52164;52.212;-1.010;2022-09-28T12:28:24;99137.49;;;13.93;60.29
62946;BME280;52164;52.212;-1.010;2022-09-28T12:30:57;99130.66;;;13.89;60.21
62946;BME280;52164;52.212;-1.010;2022-09-28T12:33:25;99131.81;;;13.91;60.43
62946;BME280;52164;52.212;-1.010;2022-09-28T12:36:07;99134.38;;;13.95;60.32
62946;BME280;52164;52.212;-1.010;2022-09-28T12:39:58;99132.73;;;13.96;59.71
62946;BME280;52164;52.212;-1.010;2022-09-28T12:41:51;99131.02;;;14.04;59.74
62946;BME280;52164;52.212;-1.010;2022-09-28T12:46:50;99128.59;;;14.21;59.12
62946;BME280;52164;52.212;-1.010;2022-09-28T12:49:51;99120.09;;;14.08;58.52
62946;BME280;52164;52.212;-1.010;2022-09-28T12:53:20;99116.74;;;13.96;58.12
62946;BME280;52164;52.212;-1.010;2022-09-28T12:56:03;99110.45;;;13.82;58.27
62946;BME280;52164;52.212;-1.010;2022-09-28T13:00:46;99112.89;;;13.79;58.59
62946;BME280;52164;52.212;-1.010;2022-09-28T13:04:02;99108.52;;;13.76;58.58
62946;BME280;52164;52.212;-1.010;2022-09-28T13:06:49;99105.87;;;13.80;58.36
62946;BME280;52164;52.212;-1.010;2022-09-28T13:09:21;99103.88;;;13.90;57.88
62946;BME280;52164;52.212;-1.010;2022-09-28T13:12:13;99098.91;;;14.04;57.75
62946;BME280;52164;52.212;-1.010;2022-09-28T13:15:40;99095.45;;;14.19;57.51
62946;BME280;52164;52.212;-1.010;2022-09-28T13:20:37;99092.69;;;14.74;56.41
62946;BME280;52164;52.212;-1.010;2022-09-28T13:25:32;99095.39;;;14.91;55.28
62946;BME280;52164;52.212;-1.010;2022-09-28T13:28:03;99096.11;;;14.95;55.04
62946;BME280;52164;52.212;-1.010;2022-09-28T13:30:30;99094.81;;;15.01;55.32
62946;BME280;52164;52.212;-1.010;2022-09-28T13:32:59;99090.90;;;15.09;55.59
62946;BME280;52164;52.212;-1.010;2022-09-28T13:35:25;99091.18;;;15.24;55.24
62946;BME280;52164;52.212;-1.010;2022-09-28T13:41:09;99078.11;;;15.57;53.66
62946;BME280;52164;52.212;-1.010;2022-09-28T13:43:43;99077.89;;;15.79;53.93
62946;BME280;52164;52.212;-1.010;2022-09-28T13:49:23;99071.80;;;16.03;52.10
62946;BME280;52164;52.212;-1.010;2022-09-28T13:52:01;99071.36;;;16.16;51.98
62946;BME280;52164;52.212;-1.010;2022-09-28T13:54:44;99076.34;;;16.10;51.97
62946;BME280;52164;52.212;-1.010;2022-09-28T13:57:45;99074.48;;;15.91;51.42
62946;BME280;52164;52.212;-1.010;2022-09-28T14:03:11;99073.50;;;15.67;51.59
62946;BME280;52164;52.212;-1.010;2022-09-28T14:05:49;99073.44;;;16.60;49.45
62946;BME280;52164;52.212;-1.010;2022-09-28T14:08:38;99068.50;;;18.22;46.03
62946;BME280;52164;52.212;-1.010;2022-09-28T14:13:59;99061.36;;;18.28;45.22
62946;BME280;52164;52.212;-1.010;2022-09-28T14:16:47;99056.88;;;18.53;44.56
62946;BME280;52164;52.212;-1.010;2022-09-28T14:19:20;99049.02;;;18.46;43.53
62946;BME280;52164;52.212;-1.010;2022-09-28T14:22:38;99050.08;;;18.16;44.41
62946;BME280;52164;52.212;-1.010;2022-09-28T14:25:12;99052.09;;;17.75;45.55
62946;BME280;52164;52.212;-1.010;2022-09-28T14:30:18;99044.69;;;17.26;46.55
62946;BME280;52164;52.212;-1.010;2022-09-28T14:32:52;99048.39;;;17.31;46.31
62946;BME280;52164;52.212;-1.010;2022-09-28T14:35:26;99049.48;;;16.87;46.70
62946;BME280;52164;52.212;-1.010;2022-09-28T14:37:57;99048.45;;;16.41;46.95
62946;BME280;52164;52.212;-1.010;2022-09-28T14:48:48;99038.83;;;15.46;47.95